sensor_id;sensor_type;location;lat;lon;timestamp;P1;durP1;ratioP1;P2;durP2;ratioP2
21894;SDS011;11112;51.270;7.224;2022-09-03T00:00:21;2.55;;;1.30;;
21894;SDS011;11112;51.270;7.224;2022-09-03T00:02:52;2.70;;;1.10;;
21894;SDS011;11112;51.270;7.224;2022-09-03T00:05:28;3.92;;;1.00;;
21894;SDS011;11112;51.270;7.224;2022-09-03T00:08:05;5.25;;;1.00;;
21894;SDS011;11112;51.270;7.224;2022-09-03T00:10:41;3.75;;;1.13;;
21894;SDS011;11112;51.270;7.224;2022-09-03T00:13:13;1.90;;;1.00;;
21894;SDS011;11112;51.270;7.224;2022-09-03T00:15:44;4.07;;;1.02;;
21894;SDS011;11112;51.270;7.224;2022-09-03T00:18:13;3.47;;;1.00;;
21894;SDS011;11112;51.270;7.224;2022-09-03T00:20:45;2.58;;;0.90;;
21894;SDS011;11112;51.270;7.224;2022-09-03T00:23:18;3.85;;;1.10;;
21894;SDS011;11112;51.270;7.224;2022-09-03T00:25:50;2.05;;;1.00;;
21894;SDS011;11112;51.270;7.224;2022-09-03T00:28:22;2.00;;;0.90;;
21894;SDS011;11112;51.270;7.224;2022-09-03T00:30:57;4.00;;;0.90;;
21894;SDS011;11112;51.270;7.224;2022-09-03T00:33:40;2.03;;;1.00;;
21894;SDS011;11112;51.270;7.224;2022-09-03T00:36:12;1.85;;;0.95;;
21894;SDS011;11112;51.270;7.224;2022-09-03T00:38:43;2.95;;;1.08;;
21894;SDS011;11112;51.270;7.224;2022-09-03T00:41:13;2.78;;;1.00;;
21894;SDS011;11112;51.270;7.224;2022-09-03T00:44:08;1.92;;;0.90;;
21894;SDS011;11112;51.270;7.224;2022-09-03T00:46:58;5.32;;;0.90;;
21894;SDS011;11112;51.270;7.224;2022-09-03T00:49:36;4.18;;;1.05;;
21894;SDS011;11112;51.270;7.224;2022-09-03T00:52:17;2.33;;;1.00;;
21894;SDS011;11112;51.270;7.224;2022-09-03T00:54:56;3.05;;;1.10;;
21894;SDS011;11112;51.270;7.224;2022-09-03T00:57:37;2.38;;;1.00;;
21894;SDS011;11112;51.270;7.224;2022-09-03T01:00:20;2.55;;;0.90;;
21894;SDS011;11112;51.270;7.224;2022-09-03T01:02:51;3.15;;;0.90;;
21894;SDS011;11112;51.270;7.224;2022-09-03T01:11:38;2.78;;;1.00;;
21894;SDS011;11112;51.270;7.224;2022-09-03T01:14:24;4.00;;;1.00;;
21894;SDS011;11112;51.270;7.224;2022-09-03T01:17:09;3.38;;;1.00;;
21894;SDS011;11112;51.270;7.224;2022-09-03T01:19:51;3.33;;;0.90;;
21894;SDS011;11112;51.270;7.224;2022-09-03T01:22:53;3.75;;;0.88;;
21894;SDS011;11112;51.270;7.224;2022-09-03T01:25:57;3.47;;;1.00;;
21894;SDS011;11112;51.270;7.224;2022-09-03T01:28:43;2.30;;;0.80;;
21894;SDS011;11112;51.270;7.224;2022-09-03T01:31:27;5.50;;;0.90;;
21894;SDS011;11112;51.270;7.224;2022-09-03T01:34:04;5.30;;;0.98;;
21894;SDS011;11112;51.270;7.224;2022-09-03T01:36:43;3.33;;;0.80;;
21894;SDS011;11112;51.270;7.224;2022-09-03T01:39:18;2.20;;;0.90;;
21894;SDS011;11112;51.270;7.224;2022-09-03T01:41:57;3.30;;;1.08;;
21894;SDS011;11112;51.270;7.224;2022-09-03T01:44:55;3.78;;;1.00;;
21894;SDS011;11112;51.270;7.224;2022-09-03T01:47:47;1.83;;;0.80;;
21894;SDS011;11112;51.270;7.224;2022-09-03T01:50:32;1.98;;;0.90;;
21894;SDS011;11112;51.270;7.224;2022-09-03T01:53:09;2.33;;;0.90;;
21894;SDS011;11112;51.270;7.224;2022-09-03T01:55:57;1.45;;;0.90;;
21894;SDS011;11112;51.270;7.224;2022-09-03T01:58:41;1.65;;;0.70;;
21894;SDS011;11112;51.270;7.224;2022-09-03T02:01:16;1.42;;;0.70;;
21894;SDS011;11112;51.270;7.224;2022-09-03T02:03:54;3.13;;;0.90;;
21894;SDS011;11112;51.270;7.224;2022-09-03T02:06:24;1.40;;;0.80;;
21894;SDS011;11112;51.270;7.224;2022-09-03T02:08:51;3.60;;;0.85;;
21894;SDS011;11112;51.270;7.224;2022-09-03T02:11:21;2.78;;;0.70;;
21894;SDS011;11112;51.270;7.224;2022-09-03T02:13:49;3.38;;;0.90;;
21894;SDS011;11112;51.270;7.224;2022-09-03T02:16:22;2.23;;;0.90;;
21894;SDS011;11112;51.270;7.224;2022-09-03T02:18:54;3.63;;;1.08;;
21894;SDS011;11112;51.270;7.224;2022-09-03T02:21:26;2.50;;;0.80;;
21894;SDS011;11112;51.270;7.224;2022-09-03T02:23:59;1.73;;;0.90;;
21894;SDS011;11112;51.270;7.224;2022-09-03T02:26:26;1.75;;;0.77;;
21894;SDS011;11112;51.270;7.224;2022-09-03T02:28:54;2.22;;;0.85;;
21894;SDS011;11112;51.270;7.224;2022-09-03T02:31:24;4.07;;;0.85;;
21894;SDS011;11112;51.270;7.224;2022-09-03T02:33:52;1.95;;;0.90;;
21894;SDS011;11112;51.270;7.224;2022-09-03T02:36:24;3.25;;;0.80;;
21894;SDS011;11112;51.270;7.224;2022-09-03T02:41:22;5.13;;;0.90;;
21894;SDS011;11112;51.270;7.224;2022-09-03T02:43:53;1.98;;;0.80;;
21894;SDS011;11112;51.270;7.224;2022-09-03T02:46:28;4.13;;;0.90;;
21894;SDS011;11112;51.270;7.224;2022-09-03T02:49:01;3.30;;;0.85;;
21894;SDS011;11112;51.270;7.224;2022-09-03T02:51:31;4.30;;;0.90;;
21894;SDS011;11112;51.270;7.224;2022-09-03T02:54:00;2.10;;;0.98;;
21894;SDS011;11112;51.270;7.224;2022-09-03T02:56:27;2.90;;;0.90;;
21894;SDS011;11112;51.270;7.224;2022-09-03T02:58:54;4.18;;;0.85;;
21894;SDS011;11112;51.270;7.224;2022-09-03T03:01:22;3.83;;;0.80;;
21894;SDS011;11112;51.270;7.224;2022-09-03T03:03:51;2.35;;;0.88;;
21894;SDS011;11112;51.270;7.224;2022-09-03T03:06:18;2.80;;;0.88;;
21894;SDS011;11112;51.270;7.224;2022-09-03T03:08:46;2.17;;;0.80;;
21894;SDS011;11112;51.270;7.224;2022-09-03T03:11:14;2.78;;;0.82;;
21894;SDS011;11112;51.270;7.224;2022-09-03T03:13:43;3.00;;;0.90;;
21894;SDS011;11112;51.270;7.224;2022-09-03T03:16:11;3.53;;;1.02;;
21894;SDS011;11112;51.270;7.224;2022-09-03T03:18:40;1.70;;;1.00;;
21894;SDS011;11112;51.270;7.224;2022-09-03T03:21:12;1.30;;;0.88;;
21894;SDS011;11112;51.270;7.224;2022-09-03T03:23:41;1.33;;;0.70;;
21894;SDS011;11112;51.270;7.224;2022-09-03T03:26:09;3.70;;;0.73;;
21894;SDS011;11112;51.270;7.224;2022-09-03T03:28:39;2.50;;;0.70;;
21894;SDS011;11112;51.270;7.224;2022-09-03T03:31:07;2.35;;;0.88;;
21894;SDS011;11112;51.270;7.224;2022-09-03T03:33:37;1.42;;;0.80;;
21894;SDS011;11112;51.270;7.224;2022-09-03T03:36:04;4.13;;;0.80;;
21894;SDS011;11112;51.270;7.224;2022-09-03T03:38:34;1.50;;;0.80;;
21894;SDS011;11112;51.270;7.224;2022-09-03T03:41:05;2.85;;;0.75;;
21894;SDS011;11112;51.270;7.224;2022-09-03T03:43:33;1.98;;;0.88;;
21894;SDS011;11112;51.270;7.224;2022-09-03T03:46:01;3.88;;;1.00;;
21894;SDS011;11112;51.270;7.224;2022-09-03T03:48:29;3.33;;;0.80;;
21894;SDS011;11112;51.270;7.224;2022-09-03T03:50:59;2.45;;;0.90;;
21894;SDS011;11112;51.270;7.224;2022-09-03T03:53:28;2.45;;;0.95;;
21894;SDS011;11112;51.270;7.224;2022-09-03T03:55:57;2.33;;;0.93;;
21894;SDS011;11112;51.270;7.224;2022-09-03T03:58:26;1.95;;;0.90;;
21894;SDS011;11112;51.270;7.224;2022-09-03T04:00:53;3.10;;;1.20;;
21894;SDS011;11112;51.270;7.224;2022-09-03T04:03:20;2.33;;;1.40;;
21894;SDS011;11112;51.270;7.224;2022-09-03T04:05:57;4.47;;;1.30;;
21894;SDS011;11112;51.270;7.224;2022-09-03T04:08:25;3.40;;;1.30;;
21894;SDS011;11112;51.270;7.224;2022-09-03T04:10:52;3.65;;;1.27;;
21894;SDS011;11112;51.270;7.224;2022-09-03T04:13:21;1.85;;;1.10;;
21894;SDS011;11112;51.270;7.224;2022-09-03T04:15:48;2.45;;;1.10;;
21894;SDS011;11112;51.270;7.224;2022-09-03T04:18:15;4.05;;;1.42;;
21894;SDS011;11112;51.270;7.224;2022-09-03T04:20:42;3.38;;;1.52;;
21894;SDS011;11112;51.270;7.224;2022-09-03T04:23:09;2.65;;;1.40;;
21894;SDS011;11112;51.270;7.224;2022-09-03T04:25:36;3.80;;;1.55;;
21894;SDS011;11112;51.270;7.224;2022-09-03T04:28:05;3.35;;;1.77;;
21894;SDS011;11112;51.270;7.224;2022-09-03T04:30:35;3.28;;;1.60;;
21894;SDS011;11112;51.270;7.224;2022-09-03T04:33:03;3.58;;;1.80;;
21894;SDS011;11112;51.270;7.224;2022-09-03T04:35:30;3.40;;;2.25;;
21894;SDS011;11112;51.270;7.224;2022-09-03T04:37:58;3.78;;;2.10;;
21894;SDS011;11112;51.270;7.224;2022-09-03T04:40:25;4.22;;;1.60;;
21894;SDS011;11112;51.270;7.224;2022-09-03T04:42:55;2.97;;;1.50;;
21894;SDS011;11112;51.270;7.224;2022-09-03T04:45:24;5.05;;;1.27;;
21894;SDS011;11112;51.270;7.224;2022-09-03T04:47:58;3.55;;;1.40;;
21894;SDS011;11112;51.270;7.224;2022-09-03T04:50:26;2.10;;;1.17;;
21894;SDS011;11112;51.270;7.224;2022-09-03T04:52:54;2.92;;;1.30;;
21894;SDS011;11112;51.270;7.224;2022-09-03T04:55:25;3.97;;;1.65;;
21894;SDS011;11112;51.270;7.224;2022-09-03T04:57:52;2.70;;;1.20;;
21894;SDS011;11112;51.270;7.224;2022-09-03T05:00:19;2.85;;;1.10;;
21894;SDS011;11112;51.270;7.224;2022-09-03T05:02:46;3.17;;;1.40;;
21894;SDS011;11112;51.270;7.224;2022-09-03T05:05:17;3.58;;;1.40;;
21894;SDS011;11112;51.270;7.224;2022-09-03T05:07:44;4.10;;;1.20;;
21894;SDS011;11112;51.270;7.224;2022-09-03T05:10:12;4.07;;;1.30;;
21894;SDS011;11112;51.270;7.224;2022-09-03T05:12:44;2.70;;;1.30;;
21894;SDS011;11112;51.270;7.224;2022-09-03T05:15:13;2.20;;;1.40;;
21894;SDS011;11112;51.270;7.224;2022-09-03T05:17:41;2.92;;;1.45;;
21894;SDS011;11112;51.270;7.224;2022-09-03T05:20:09;2.60;;;1.25;;
21894;SDS011;11112;51.270;7.224;2022-09-03T05:22:37;3.85;;;1.10;;
21894;SDS011;11112;51.270;7.224;2022-09-03T05:25:05;2.85;;;1.45;;
21894;SDS011;11112;51.270;7.224;2022-09-03T05:27:33;2.42;;;1.50;;
21894;SDS011;11112;51.270;7.224;2022-09-03T05:30:00;2.67;;;1.33;;
21894;SDS011;11112;51.270;7.224;2022-09-03T05:32:29;2.75;;;1.50;;
21894;SDS011;11112;51.270;7.224;2022-09-03T05:34:56;2.50;;;1.30;;
21894;SDS011;11112;51.270;7.224;2022-09-03T05:37:24;3.17;;;1.30;;
21894;SDS011;11112;51.270;7.224;2022-09-03T05:39:53;2.50;;;1.10;;
21894;SDS011;11112;51.270;7.224;2022-09-03T05:42:20;2.60;;;0.98;;
21894;SDS011;11112;51.270;7.224;2022-09-03T05:44:47;2.50;;;1.42;;
21894;SDS011;11112;51.270;7.224;2022-09-03T05:47:15;2.63;;;1.10;;
21894;SDS011;11112;51.270;7.224;2022-09-03T05:49:42;2.30;;;1.40;;
21894;SDS011;11112;51.270;7.224;2022-09-03T05:52:09;2.45;;;1.27;;
21894;SDS011;11112;51.270;7.224;2022-09-03T05:54:36;3.15;;;1.25;;
21894;SDS011;11112;51.270;7.224;2022-09-03T05:57:05;4.35;;;1.20;;
21894;SDS011;11112;51.270;7.224;2022-09-03T05:59:32;4.60;;;1.23;;
21894;SDS011;11112;51.270;7.224;2022-09-03T06:01:59;3.40;;;1.50;;
21894;SDS011;11112;51.270;7.224;2022-09-03T06:04:26;2.50;;;1.20;;
21894;SDS011;11112;51.270;7.224;2022-09-03T06:06:53;3.00;;;1.30;;
21894;SDS011;11112;51.270;7.224;2022-09-03T06:09:21;4.32;;;1.10;;
21894;SDS011;11112;51.270;7.224;2022-09-03T06:11:48;1.88;;;1.00;;
21894;SDS011;11112;51.270;7.224;2022-09-03T06:14:17;2.67;;;1.00;;
21894;SDS011;11112;51.270;7.224;2022-09-03T06:16:45;2.40;;;0.90;;
21894;SDS011;11112;51.270;7.224;2022-09-03T06:19:14;4.82;;;0.90;;
21894;SDS011;11112;51.270;7.224;2022-09-03T06:21:42;4.28;;;0.98;;
21894;SDS011;11112;51.270;7.224;2022-09-03T06:24:11;5.45;;;0.90;;
21894;SDS011;11112;51.270;7.224;2022-09-03T06:26:40;2.00;;;0.90;;
21894;SDS011;11112;51.270;7.224;2022-09-03T06:29:08;1.50;;;0.80;;
21894;SDS011;11112;51.270;7.224;2022-09-03T06:31:36;3.42;;;1.05;;
21894;SDS011;11112;51.270;7.224;2022-09-03T06:34:04;4.47;;;0.90;;
21894;SDS011;11112;51.270;7.224;2022-09-03T06:36:31;1.98;;;0.82;;
21894;SDS011;11112;51.270;7.224;2022-09-03T06:38:58;4.15;;;0.80;;
21894;SDS011;11112;51.270;7.224;2022-09-03T06:41:26;2.97;;;0.80;;
21894;SDS011;11112;51.270;7.224;2022-09-03T06:43:56;2.42;;;0.63;;
21894;SDS011;11112;51.270;7.224;2022-09-03T06:46:26;2.35;;;0.70;;
21894;SDS011;11112;51.270;7.224;2022-09-03T06:48:55;1.77;;;0.75;;
21894;SDS011;11112;51.270;7.224;2022-09-03T06:51:23;2.00;;;0.68;;
21894;SDS011;11112;51.270;7.224;2022-09-03T06:53:57;4.68;;;0.90;;
21894;SDS011;11112;51.270;7.224;2022-09-03T06:56:26;6.22;;;0.80;;
21894;SDS011;11112;51.270;7.224;2022-09-03T06:58:54;1.88;;;0.70;;
21894;SDS011;11112;51.270;7.224;2022-09-03T07:01:23;2.45;;;0.90;;
21894;SDS011;11112;51.270;7.224;2022-09-03T07:03:52;3.20;;;1.00;;
21894;SDS011;11112;51.270;7.224;2022-09-03T07:06:23;3.15;;;0.80;;
21894;SDS011;11112;51.270;7.224;2022-09-03T07:08:52;2.90;;;0.80;;
21894;SDS011;11112;51.270;7.224;2022-09-03T07:11:23;1.38;;;0.70;;
21894;SDS011;11112;51.270;7.224;2022-09-03T07:13:53;3.17;;;0.80;;
21894;SDS011;11112;51.270;7.224;2022-09-03T07:16:21;4.80;;;0.80;;
21894;SDS011;11112;51.270;7.224;2022-09-03T07:18:50;2.20;;;0.80;;
21894;SDS011;11112;51.270;7.224;2022-09-03T07:21:19;4.15;;;0.77;;
21894;SDS011;11112;51.270;7.224;2022-09-03T07:23:48;1.33;;;0.70;;
21894;SDS011;11112;51.270;7.224;2022-09-03T07:26:18;1.90;;;0.60;;
21894;SDS011;11112;51.270;7.224;2022-09-03T07:28:49;2.72;;;0.75;;
21894;SDS011;11112;51.270;7.224;2022-09-03T07:31:18;1.48;;;0.70;;
21894;SDS011;11112;51.270;7.224;2022-09-03T07:33:50;2.97;;;0.80;;
21894;SDS011;11112;51.270;7.224;2022-09-03T07:36:22;3.05;;;0.90;;
21894;SDS011;11112;51.270;7.224;2022-09-03T07:38:50;3.03;;;0.90;;
21894;SDS011;11112;51.270;7.224;2022-09-03T07:41:20;1.10;;;0.70;;
21894;SDS011;11112;51.270;7.224;2022-09-03T07:43:49;1.90;;;0.70;;
21894;SDS011;11112;51.270;7.224;2022-09-03T07:46:17;3.90;;;0.90;;
21894;SDS011;11112;51.270;7.224;2022-09-03T07:48:47;2.88;;;0.88;;
21894;SDS011;11112;51.270;7.224;2022-09-03T07:51:16;2.55;;;0.77;;
21894;SDS011;11112;51.270;7.224;2022-09-03T07:53:45;2.55;;;0.80;;
21894;SDS011;11112;51.270;7.224;2022-09-03T07:56:13;2.00;;;0.90;;
21894;SDS011;11112;51.270;7.224;2022-09-03T07:58:41;2.70;;;0.80;;
21894;SDS011;11112;51.270;7.224;2022-09-03T08:01:08;2.30;;;0.70;;
21894;SDS011;11112;51.270;7.224;2022-09-03T08:03:38;2.72;;;0.80;;
21894;SDS011;11112;51.270;7.224;2022-09-03T08:06:09;3.55;;;0.88;;
21894;SDS011;11112;51.270;7.224;2022-09-03T08:08:37;2.33;;;0.73;;
21894;SDS011;11112;51.270;7.224;2022-09-03T08:11:07;3.20;;;0.90;;
21894;SDS011;11112;51.270;7.224;2022-09-03T08:13:37;4.55;;;0.90;;
21894;SDS011;11112;51.270;7.224;2022-09-03T08:16:05;2.50;;;0.73;;
21894;SDS011;11112;51.270;7.224;2022-09-03T08:18:33;1.88;;;0.80;;
21894;SDS011;11112;51.270;7.224;2022-09-03T08:21:04;3.20;;;1.02;;
21894;SDS011;11112;51.270;7.224;2022-09-03T08:23:32;3.15;;;1.00;;
21894;SDS011;11112;51.270;7.224;2022-09-03T08:26:03;4.97;;;0.80;;
21894;SDS011;11112;51.270;7.224;2022-09-03T08:28:32;2.95;;;1.00;;
21894;SDS011;11112;51.270;7.224;2022-09-03T08:31:03;1.50;;;0.75;;
21894;SDS011;11112;51.270;7.224;2022-09-03T08:33:32;1.40;;;0.80;;
21894;SDS011;11112;51.270;7.224;2022-09-03T08:36:03;5.45;;;0.98;;
21894;SDS011;11112;51.270;7.224;2022-09-03T08:38:33;2.50;;;1.00;;
21894;SDS011;11112;51.270;7.224;2022-09-03T08:41:02;4.53;;;0.85;;
21894;SDS011;11112;51.270;7.224;2022-09-03T08:43:35;2.22;;;0.70;;
21894;SDS011;11112;51.270;7.224;2022-09-03T08:46:18;3.25;;;0.93;;
21894;SDS011;11112;51.270;7.224;2022-09-03T08:48:50;4.22;;;1.02;;
21894;SDS011;11112;51.270;7.224;2022-09-03T08:51:17;2.85;;;0.82;;
21894;SDS011;11112;51.270;7.224;2022-09-03T08:53:51;3.58;;;0.80;;
21894;SDS011;11112;51.270;7.224;2022-09-03T08:56:23;3.10;;;0.95;;
21894;SDS011;11112;51.270;7.224;2022-09-03T08:58:55;3.17;;;1.10;;
21894;SDS011;11112;51.270;7.224;2022-09-03T09:01:27;2.45;;;1.00;;
21894;SDS011;11112;51.270;7.224;2022-09-03T09:04:08;2.67;;;1.00;;
21894;SDS011;11112;51.270;7.224;2022-09-03T09:06:49;3.85;;;1.08;;
21894;SDS011;11112;51.270;7.224;2022-09-03T09:09:25;5.25;;;1.00;;
21894;SDS011;11112;51.270;7.224;2022-09-03T09:12:00;1.88;;;0.85;;
21894;SDS011;11112;51.270;7.224;2022-09-03T09:14:43;2.53;;;1.63;;
21894;SDS011;11112;51.270;7.224;2022-09-03T09:17:25;2.03;;;0.95;;
21894;SDS011;11112;51.270;7.224;2022-09-03T09:20:20;7.22;;;1.02;;
21894;SDS011;11112;51.270;7.224;2022-09-03T09:22:58;2.03;;;0.90;;
21894;SDS011;11112;51.270;7.224;2022-09-03T09:25:30;4.50;;;1.02;;
21894;SDS011;11112;51.270;7.224;2022-09-03T09:28:06;4.70;;;1.08;;
21894;SDS011;11112;51.270;7.224;2022-09-03T09:30:42;2.15;;;0.93;;
21894;SDS011;11112;51.270;7.224;2022-09-03T09:33:12;3.45;;;1.00;;
21894;SDS011;11112;51.270;7.224;2022-09-03T09:35:40;2.22;;;0.93;;
21894;SDS011;11112;51.270;7.224;2022-09-03T09:38:08;4.30;;;1.08;;
21894;SDS011;11112;51.270;7.224;2022-09-03T09:40:38;6.53;;;1.10;;
21894;SDS011;11112;51.270;7.224;2022-09-03T09:43:09;2.33;;;1.10;;
21894;SDS011;11112;51.270;7.224;2022-09-03T09:45:40;2.28;;;1.10;;
21894;SDS011;11112;51.270;7.224;2022-09-03T09:48:19;4.70;;;1.10;;
21894;SDS011;11112;51.270;7.224;2022-09-03T09:51:01;4.18;;;1.20;;
21894;SDS011;11112;51.270;7.224;2022-09-03T09:53:31;3.13;;;1.08;;
21894;SDS011;11112;51.270;7.224;2022-09-03T09:55:59;2.65;;;0.90;;
21894;SDS011;11112;51.270;7.224;2022-09-03T09:58:27;4.28;;;1.30;;
21894;SDS011;11112;51.270;7.224;2022-09-03T10:00:59;2.72;;;1.00;;
21894;SDS011;11112;51.270;7.224;2022-09-03T10:03:38;1.77;;;0.80;;
21894;SDS011;11112;51.270;7.224;2022-09-03T10:06:14;3.10;;;1.00;;
21894;SDS011;11112;51.270;7.224;2022-09-03T10:09:06;4.13;;;0.93;;
21894;SDS011;11112;51.270;7.224;2022-09-03T10:11:36;5.30;;;0.88;;
21894;SDS011;11112;51.270;7.224;2022-09-03T10:14:08;3.40;;;0.93;;
21894;SDS011;11112;51.270;7.224;2022-09-03T10:16:46;5.45;;;1.20;;
21894;SDS011;11112;51.270;7.224;2022-09-03T10:19:22;4.72;;;1.10;;
21894;SDS011;11112;51.270;7.224;2022-09-03T10:22:00;4.40;;;1.20;;
21894;SDS011;11112;51.270;7.224;2022-09-03T10:24:35;2.53;;;0.90;;
21894;SDS011;11112;51.270;7.224;2022-09-03T10:27:13;2.40;;;0.93;;
21894;SDS011;11112;51.270;7.224;2022-09-03T10:29:43;4.43;;;1.10;;
21894;SDS011;11112;51.270;7.224;2022-09-03T10:32:16;6.38;;;1.35;;
21894;SDS011;11112;51.270;7.224;2022-09-03T10:34:56;2.70;;;1.00;;
21894;SDS011;11112;51.270;7.224;2022-09-03T10:37:34;4.28;;;1.23;;
21894;SDS011;11112;51.270;7.224;2022-09-03T10:40:15;4.88;;;1.13;;
21894;SDS011;11112;51.270;7.224;2022-09-03T10:42:57;3.50;;;1.00;;
21894;SDS011;11112;51.270;7.224;2022-09-03T10:45:40;1.83;;;1.10;;
21894;SDS011;11112;51.270;7.224;2022-09-03T10:48:25;3.15;;;0.90;;
21894;SDS011;11112;51.270;7.224;2022-09-03T10:51:09;3.53;;;0.95;;
21894;SDS011;11112;51.270;7.224;2022-09-03T10:53:46;4.22;;;0.90;;
21894;SDS011;11112;51.270;7.224;2022-09-03T10:56:31;2.45;;;0.98;;
21894;SDS011;11112;51.270;7.224;2022-09-03T10:59:12;3.58;;;1.15;;
21894;SDS011;11112;51.270;7.224;2022-09-03T11:02:00;2.42;;;1.05;;
21894;SDS011;11112;51.270;7.224;2022-09-03T11:04:57;2.97;;;0.93;;
21894;SDS011;11112;51.270;7.224;2022-09-03T11:07:32;2.20;;;1.10;;
21894;SDS011;11112;51.270;7.224;2022-09-03T11:10:08;4.00;;;1.10;;
21894;SDS011;11112;51.270;7.224;2022-09-03T11:12:41;2.03;;;1.00;;
21894;SDS011;11112;51.270;7.224;2022-09-03T11:15:12;1.80;;;1.00;;
21894;SDS011;11112;51.270;7.224;2022-09-03T11:17:49;4.15;;;1.20;;
21894;SDS011;11112;51.270;7.224;2022-09-03T11:20:24;2.75;;;1.27;;
21894;SDS011;11112;51.270;7.224;2022-09-03T11:22:53;3.95;;;1.20;;
21894;SDS011;11112;51.270;7.224;2022-09-03T11:25:26;2.50;;;1.13;;
21894;SDS011;11112;51.270;7.224;2022-09-03T11:28:00;3.63;;;1.20;;
21894;SDS011;11112;51.270;7.224;2022-09-03T11:30:46;3.92;;;1.10;;
21894;SDS011;11112;51.270;7.224;2022-09-03T11:33:28;3.25;;;1.20;;
21894;SDS011;11112;51.270;7.224;2022-09-03T11:36:04;4.15;;;1.10;;
21894;SDS011;11112;51.270;7.224;2022-09-03T11:38:32;5.40;;;1.42;;
21894;SDS011;11112;51.270;7.224;2022-09-03T11:41:09;2.75;;;1.30;;
21894;SDS011;11112;51.270;7.224;2022-09-03T11:43:39;1.60;;;1.10;;
21894;SDS011;11112;51.270;7.224;2022-09-03T11:46:12;5.13;;;1.20;;
21894;SDS011;11112;51.270;7.224;2022-09-03T11:48:53;4.20;;;1.30;;
21894;SDS011;11112;51.270;7.224;2022-09-03T11:51:32;4.25;;;1.15;;
21894;SDS011;11112;51.270;7.224;2022-09-03T11:54:02;2.50;;;1.10;;
21894;SDS011;11112;51.270;7.224;2022-09-03T11:56:31;2.72;;;1.15;;
21894;SDS011;11112;51.270;7.224;2022-09-03T11:59:02;1.88;;;1.20;;
21894;SDS011;11112;51.270;7.224;2022-09-03T12:01:43;2.72;;;1.20;;
21894;SDS011;11112;51.270;7.224;2022-09-03T12:04:18;3.00;;;1.10;;
21894;SDS011;11112;51.270;7.224;2022-09-03T12:06:59;2.60;;;1.30;;
21894;SDS011;11112;51.270;7.224;2022-09-03T12:12:51;2.58;;;1.30;;
21894;SDS011;11112;51.270;7.224;2022-09-03T12:15:35;3.42;;;1.20;;
21894;SDS011;11112;51.270;7.224;2022-09-03T12:18:26;2.83;;;1.20;;
21894;SDS011;11112;51.270;7.224;2022-09-03T12:21:01;3.10;;;1.33;;
21894;SDS011;11112;51.270;7.224;2022-09-03T12:23:32;2.95;;;1.65;;
21894;SDS011;11112;51.270;7.224;2022-09-03T12:26:02;3.30;;;1.75;;
21894;SDS011;11112;51.270;7.224;2022-09-03T12:28:34;3.28;;;2.05;;
21894;SDS011;11112;51.270;7.224;2022-09-03T12:31:07;2.85;;;2.05;;
21894;SDS011;11112;51.270;7.224;2022-09-03T12:33:47;3.15;;;1.88;;
21894;SDS011;11112;51.270;7.224;2022-09-03T12:36:16;5.38;;;2.75;;
21894;SDS011;11112;51.270;7.224;2022-09-03T12:38:46;3.70;;;2.10;;
21894;SDS011;11112;51.270;7.224;2022-09-03T12:41:21;3.28;;;2.10;;
21894;SDS011;11112;51.270;7.224;2022-09-03T12:43:52;5.28;;;1.80;;
21894;SDS011;11112;51.270;7.224;2022-09-03T12:46:22;4.63;;;1.73;;
21894;SDS011;11112;51.270;7.224;2022-09-03T12:48:51;3.50;;;1.50;;
21894;SDS011;11112;51.270;7.224;2022-09-03T12:51:20;3.08;;;1.58;;
21894;SDS011;11112;51.270;7.224;2022-09-03T12:53:49;5.03;;;1.65;;
21894;SDS011;11112;51.270;7.224;2022-09-03T12:56:20;3.28;;;1.67;;
21894;SDS011;11112;51.270;7.224;2022-09-03T12:58:49;4.63;;;1.48;;
21894;SDS011;11112;51.270;7.224;2022-09-03T13:01:23;3.75;;;1.60;;
21894;SDS011;11112;51.270;7.224;2022-09-03T13:03:56;3.67;;;1.50;;
21894;SDS011;11112;51.270;7.224;2022-09-03T13:06:30;2.75;;;1.50;;
21894;SDS011;11112;51.270;7.224;2022-09-03T13:09:09;5.28;;;1.65;;
21894;SDS011;11112;51.270;7.224;2022-09-03T13:11:38;4.43;;;1.90;;
21894;SDS011;11112;51.270;7.224;2022-09-03T13:14:09;2.30;;;1.60;;
21894;SDS011;11112;51.270;7.224;2022-09-03T13:19:55;2.42;;;1.33;;
21894;SDS011;11112;51.270;7.224;2022-09-03T13:22:42;3.10;;;1.70;;
21894;SDS011;11112;51.270;7.224;2022-09-03T13:25:24;2.40;;;1.42;;
21894;SDS011;11112;51.270;7.224;2022-09-03T13:28:02;2.67;;;1.50;;
21894;SDS011;11112;51.270;7.224;2022-09-03T13:30:40;2.88;;;1.30;;
21894;SDS011;11112;51.270;7.224;2022-09-03T13:33:19;2.40;;;1.48;;
21894;SDS011;11112;51.270;7.224;2022-09-03T13:35:52;2.05;;;1.40;;
21894;SDS011;11112;51.270;7.224;2022-09-03T13:38:27;2.45;;;1.40;;
21894;SDS011;11112;51.270;7.224;2022-09-03T13:41:05;2.08;;;1.30;;
21894;SDS011;11112;51.270;7.224;2022-09-03T13:43:44;4.82;;;1.75;;
21894;SDS011;11112;51.270;7.224;2022-09-03T13:46:20;2.67;;;1.40;;
21894;SDS011;11112;51.270;7.224;2022-09-03T13:48:55;3.40;;;1.52;;
21894;SDS011;11112;51.270;7.224;2022-09-03T13:51:48;2.60;;;1.55;;
21894;SDS011;11112;51.270;7.224;2022-09-03T13:54:21;3.67;;;1.58;;
21894;SDS011;11112;51.270;7.224;2022-09-03T13:59:28;4.07;;;1.65;;
21894;SDS011;11112;51.270;7.224;2022-09-03T14:02:09;3.35;;;1.67;;
21894;SDS011;11112;51.270;7.224;2022-09-03T14:05:00;3.72;;;1.38;;
21894;SDS011;11112;51.270;7.224;2022-09-03T14:07:43;5.82;;;1.90;;
21894;SDS011;11112;51.270;7.224;2022-09-03T14:10:24;2.60;;;1.73;;
21894;SDS011;11112;51.270;7.224;2022-09-03T14:13:15;3.13;;;1.90;;
21894;SDS011;11112;51.270;7.224;2022-09-03T14:15:59;2.78;;;1.60;;
21894;SDS011;11112;51.270;7.224;2022-09-03T14:18:40;4.03;;;1.70;;
21894;SDS011;11112;51.270;7.224;2022-09-03T14:21:15;2.35;;;1.30;;
21894;SDS011;11112;51.270;7.224;2022-09-03T14:23:50;2.92;;;1.67;;
21894;SDS011;11112;51.270;7.224;2022-09-03T14:26:27;3.03;;;1.60;;
21894;SDS011;11112;51.270;7.224;2022-09-03T14:28:59;2.50;;;1.55;;
21894;SDS011;11112;51.270;7.224;2022-09-03T14:31:34;3.42;;;1.40;;
21894;SDS011;11112;51.270;7.224;2022-09-03T14:34:25;5.97;;;1.58;;
21894;SDS011;11112;51.270;7.224;2022-09-03T14:37:02;2.75;;;1.50;;
21894;SDS011;11112;51.270;7.224;2022-09-03T14:39:44;2.67;;;1.30;;
21894;SDS011;11112;51.270;7.224;2022-09-03T14:42:36;2.60;;;1.30;;
21894;SDS011;11112;51.270;7.224;2022-09-03T14:45:25;3.20;;;1.70;;
21894;SDS011;11112;51.270;7.224;2022-09-03T14:48:24;4.30;;;1.50;;
21894;SDS011;11112;51.270;7.224;2022-09-03T14:51:09;7.18;;;1.40;;
21894;SDS011;11112;51.270;7.224;2022-09-03T14:54:03;4.38;;;1.50;;
21894;SDS011;11112;51.270;7.224;2022-09-03T14:57:01;1.63;;;1.20;;
21894;SDS011;11112;51.270;7.224;2022-09-03T14:59:54;4.68;;;1.70;;
21894;SDS011;11112;51.270;7.224;2022-09-03T15:02:43;4.28;;;1.70;;
21894;SDS011;11112;51.270;7.224;2022-09-03T15:05:37;2.60;;;1.80;;
21894;SDS011;11112;51.270;7.224;2022-09-03T15:08:19;3.58;;;1.77;;
21894;SDS011;11112;51.270;7.224;2022-09-03T15:11:14;3.45;;;1.60;;
21894;SDS011;11112;51.270;7.224;2022-09-03T15:16:25;3.47;;;1.40;;
21894;SDS011;11112;51.270;7.224;2022-09-03T15:19:10;2.47;;;1.27;;
21894;SDS011;11112;51.270;7.224;2022-09-03T15:22:01;2.55;;;1.50;;
21894;SDS011;11112;51.270;7.224;2022-09-03T15:24:42;2.22;;;1.40;;
21894;SDS011;11112;51.270;7.224;2022-09-03T15:27:27;2.42;;;1.52;;
21894;SDS011;11112;51.270;7.224;2022-09-03T15:30:09;3.72;;;1.92;;
21894;SDS011;11112;51.270;7.224;2022-09-03T15:32:42;1.70;;;1.30;;
21894;SDS011;11112;51.270;7.224;2022-09-03T15:35:27;2.45;;;1.27;;
21894;SDS011;11112;51.270;7.224;2022-09-03T15:38:07;2.25;;;1.17;;
21894;SDS011;11112;51.270;7.224;2022-09-03T15:40:40;2.13;;;1.20;;
21894;SDS011;11112;51.270;7.224;2022-09-03T15:43:16;1.63;;;1.20;;
21894;SDS011;11112;51.270;7.224;2022-09-03T15:45:50;1.98;;;1.20;;
21894;SDS011;11112;51.270;7.224;2022-09-03T15:48:25;3.67;;;1.50;;